Time,TemperatureF,DewpointF,PressureIn,WindDirection,WindDirectionDegrees,WindSpeedMPH,WindSpeedGustMPH,Humidity,HourlyPrecipIn,Conditions,Clouds,dailyrainin,SoftwareType,DateUTC
2013-11-25 00:15:00,19.8,8.0,30.31,WNW,295,1.0,6.0,60,0.00,,,0.00,weatherlink.com 1.10,2013-11-25 05:15:00,
2013-11-25 00:30:00,19.7,8.0,30.32,South,190,0.0,7.0,61,0.00,,,0.00,weatherlink.com 1.10,2013-11-25 05:30:00,
2013-11-25 00:45:00,19.3,9.0,30.32,WNW,290,1.0,4.0,63,0.00,,,0.00,weatherlink.com 1.10,2013-11-25 05:45:00,
2013-11-25 01:00:00,18.6,9.0,30.32,WNW,285,0.0,2.0,66,0.00,,,0.00,weatherlink.com 1.10,2013-11-25 06:00:00,
2013-11-25 01:15:00,17.2,9.0,30.33,NW,316,0.0,2.0,71,0.00,,,0.00,weatherlink.com 1.10,2013-11-25 06:15:00,
2013-11-25 01:30:00,17.1,10.0,30.33,ESE,117,0.0,1.0,73,0.00,,,0.00,weatherlink.com 1.10,2013-11-25 06:30:00,
2013-11-25 01:45:00,15.3,9.0,30.34,WNW,295,0.0,1.0,77,0.00,,,0.00,weatherlink.com 1.10,2013-11-25 06:45:00,
2013-11-25 02:00:00,14.9,9.0,30.35,WNW,295,0.0,0.0,78,0.00,,,0.00,weatherlink.com 1.10,2013-11-25 07:00:00,
2013-11-25 02:15:00,14.1,9.0,30.34,WNW,289,0.0,1.0,81,0.00,,,0.00,weatherlink.com 1.10,2013-11-25 07:15:00,
2013-11-25 02:30:00,14.2,9.0,30.33,WNW,294,1.0,3.0,81,0.00,,,0.00,weatherlink.com 1.10,2013-11-25 07:30:00,
2013-11-25 02:45:00,14.9,10.0,30.34,NW,307,0.0,1.0,81,0.00,,,0.00,weatherlink.com 1.10,2013-11-25 07:45:00,
2013-11-25 03:00:00,15.4,10.0,30.34,ESE,110,0.0,0.0,79,0.00,,,0.00,weatherlink.com 1.10,2013-11-25 08:00:00,
2013-11-25 03:15:00,14.4,10.0,30.34,ESE,110,0.0,0.0,81,0.00,,,0.00,weatherlink.com 1.10,2013-11-25 08:15:00,
2013-11-25 03:30:00,13.0,9.0,30.35,NE,39,0.0,0.0,83,0.00,,,0.00,weatherlink.com 1.10,2013-11-25 08:30:00,
2013-11-25 03:45:00,13.1,9.0,30.36,North,354,0.0,1.0,84,0.00,,,0.00,weatherlink.com 1.10,2013-11-25 08:45:00,
2013-11-25 04:00:00,12.9,9.0,30.36,ESE,117,0.0,3.0,84,0.00,,,0.00,weatherlink.com 1.10,2013-11-25 09:00:00,
2013-11-25 04:15:00,12.0,9.0,30.37,ESE,117,0.0,0.0,86,0.00,,,0.00,weatherlink.com 1.10,2013-11-25 09:15:00,
2013-11-25 04:30:00,11.1,8.0,30.37,ESE,117,0.0,0.0,86,0.00,,,0.00,weatherlink.com 1.10,2013-11-25 09:30:00,
2013-11-25 04:45:00,10.7,8.0,30.38,ESE,117,0.0,0.0,88,0.00,,,0.00,weatherlink.com 1.10,2013-11-25 09:45:00,
2013-11-25 05:00:00,11.6,9.0,30.39,ESE,117,0.0,0.0,88,0.00,,,0.00,weatherlink.com 1.10,2013-11-25 10:00:00,
2013-11-25 05:15:00,10.6,8.0,30.39,ESE,117,0.0,0.0,88,0.00,,,0.00,weatherlink.com 1.10,2013-11-25 10:15:00,
2013-11-25 05:30:00,10.7,8.0,30.39,ESE,117,0.0,0.0,89,0.00,,,0.00,weatherlink.com 1.10,2013-11-25 10:30:00,
2013-11-25 05:45:00,10.2,8.0,30.40,ESE,117,0.0,0.0,89,0.00,,,0.00,weatherlink.com 1.10,2013-11-25 10:45:00,
2013-11-25 06:00:00,11.0,8.0,30.40,ESE,117,0.0,0.0,89,0.00,,,0.00,weatherlink.com 1.10,2013-11-25 11:00:00,
2013-11-25 06:15:00,12.5,9.0,30.41,WNW,286,0.0,2.0,85,0.00,,,0.00,weatherlink.com 1.10,2013-11-25 11:15:00,
2013-11-25 06:30:00,12.3,9.0,30.41,ESE,117,0.0,0.0,85,0.00,,,0.00,weatherlink.com 1.10,2013-11-25 11:30:00,
2013-11-25 06:45:00,10.7,7.0,30.41,ESE,117,0.0,0.0,86,0.00,,,0.00,weatherlink.com 1.10,2013-11-25 11:45:00,
2013-11-25 07:00:00,10.9,8.0,30.42,ESE,117,0.0,0.0,87,0.00,,,0.00,weatherlink.com 1.10,2013-11-25 12:00:00,
2013-11-25 07:16:00,10.9,8.0,30.43,West,277,0.0,1.0,87,0.00,,,0.00,weatherlink.com 1.10,2013-11-25 12:16:00,
2013-11-25 07:31:00,11.6,9.0,30.43,WNW,290,0.0,0.0,89,0.00,,,0.00,weatherlink.com 1.10,2013-11-25 12:31:00,
2013-11-25 07:46:00,12.2,9.0,30.43,WNW,288,0.0,0.0,88,0.00,,,0.00,weatherlink.com 1.10,2013-11-25 12:46:00,
2013-11-25 08:01:00,14.0,11.0,30.44,WNW,287,0.0,0.0,87,0.00,,,0.00,weatherlink.com 1.10,2013-11-25 13:01:00,
2013-11-25 08:16:00,16.1,11.0,30.44,ESE,115,1.0,2.0,81,0.00,,,0.00,weatherlink.com 1.10,2013-11-25 13:16:00,
2013-11-25 08:31:00,17.5,11.0,30.44,East,95,1.0,1.0,75,0.00,,,0.00,weatherlink.com 1.10,2013-11-25 13:31:00,
2013-11-25 08:46:00,18.9,12.0,30.45,East,101,2.0,5.0,73,0.00,,,0.00,weatherlink.com 1.10,2013-11-25 13:46:00,
2013-11-25 09:01:00,20.1,12.0,30.45,WNW,291,4.0,6.0,70,0.00,,,0.00,weatherlink.com 1.10,2013-11-25 14:01:00,
2013-11-25 09:16:00,21.1,12.0,30.45,West,280,1.0,5.0,68,0.00,,,0.00,weatherlink.com 1.10,2013-11-25 14:16:00,
2013-11-25 09:31:00,22.4,13.0,30.45,ESE,117,1.0,7.0,66,0.00,,,0.00,weatherlink.com 1.10,2013-11-25 14:31:00,
2013-11-25 09:46:00,23.4,12.0,30.45,West,263,1.0,6.0,63,0.00,,,0.00,weatherlink.com 1.10,2013-11-25 14:46:00,
2013-11-25 10:01:00,24.0,12.0,30.45,WNW,287,4.0,7.0,61,0.00,,,0.00,weatherlink.com 1.10,2013-11-25 15:01:00,
2013-11-25 10:16:00,24.4,12.0,30.44,WNW,299,3.0,7.0,60,0.00,,,0.00,weatherlink.com 1.10,2013-11-25 15:16:00,
2013-11-25 10:31:00,24.8,11.0,30.44,WNW,296,4.0,9.0,57,0.00,,,0.00,weatherlink.com 1.10,2013-11-25 15:31:00,
2013-11-25 10:46:00,25.7,12.0,30.43,ENE,71,1.0,6.0,57,0.00,,,0.00,weatherlink.com 1.10,2013-11-25 15:46:00,
2013-11-25 11:01:00,26.0,12.0,30.43,ESE,105,1.0,8.0,55,0.00,,,0.00,weatherlink.com 1.10,2013-11-25 16:01:00,
2013-11-25 11:16:00,26.7,12.0,30.43,WSW,248,1.0,4.0,53,0.00,,,0.00,weatherlink.com 1.10,2013-11-25 16:16:00,
2013-11-25 11:31:00,28.4,13.0,30.43,WNW,296,0.0,6.0,53,0.00,,,0.00,weatherlink.com 1.10,2013-11-25 16:31:00,
2013-11-25 11:46:00,29.1,13.0,30.42,ESE,108,1.0,5.0,51,0.00,,,0.00,weatherlink.com 1.10,2013-11-25 16:46:00,
2013-11-25 12:01:00,29.1,13.0,30.42,NNW,341,1.0,7.0,51,0.00,,,0.00,weatherlink.com 1.10,2013-11-25 17:01:00,
2013-11-25 12:16:00,28.9,12.0,30.41,ESE,105,0.0,6.0,50,0.00,,,0.00,weatherlink.com 1.10,2013-11-25 17:16:00,
2013-11-25 12:46:00,29.8,13.0,30.40,West,271,2.0,4.0,50,0.00,,,0.00,weatherlink.com 1.10,2013-11-25 17:46:00,
2013-11-25 13:01:00,30.1,13.0,30.38,ENE,67,0.0,5.0,49,0.00,,,0.00,weatherlink.com 1.10,2013-11-25 18:01:00,
2013-11-25 13:16:00,30.7,13.0,30.38,NNW,344,1.0,2.0,49,0.00,,,0.00,weatherlink.com 1.10,2013-11-25 18:16:00,
2013-11-25 13:31:00,31.1,12.0,30.37,ESE,120,2.0,5.0,45,0.00,,,0.00,weatherlink.com 1.10,2013-11-25 18:31:00,
2013-11-25 13:46:00,31.5,12.0,30.37,NNW,331,0.0,6.0,44,0.00,,,0.00,weatherlink.com 1.10,2013-11-25 18:46:00,
2013-11-25 14:01:00,31.5,12.0,30.36,WNW,285,3.0,6.0,45,0.00,,,0.00,weatherlink.com 1.10,2013-11-25 19:01:00,
2013-11-25 14:16:00,32.0,13.0,30.36,SE,128,2.0,4.0,45,0.00,,,0.00,weatherlink.com 1.10,2013-11-25 19:16:00,
2013-11-25 14:31:00,31.9,13.0,30.36,WNW,287,1.0,6.0,46,0.00,,,0.00,weatherlink.com 1.10,2013-11-25 19:31:00,
2013-11-25 14:46:00,31.8,14.0,30.36,NNE,32,1.0,5.0,47,0.00,,,0.00,weatherlink.com 1.10,2013-11-25 19:46:00,
2013-11-25 15:01:00,31.7,13.0,30.36,WNW,284,2.0,5.0,47,0.00,,,0.00,weatherlink.com 1.10,2013-11-25 20:01:00,
2013-11-25 15:17:00,31.2,13.0,30.35,NW,313,2.0,3.0,48,0.00,,,0.00,weatherlink.com 1.10,2013-11-25 20:17:00,
2013-11-25 15:32:00,31.2,13.0,30.36,ESE,108,0.0,1.0,48,0.00,,,0.00,weatherlink.com 1.10,2013-11-25 20:32:00,
2013-11-25 15:47:00,30.5,14.0,30.36,NE,49,0.0,1.0,50,0.00,,,0.00,weatherlink.com 1.10,2013-11-25 20:47:00,
2013-11-25 16:02:00,30.2,13.0,30.36,ENE,75,0.0,3.0,48,0.00,,,0.00,weatherlink.com 1.10,2013-11-25 21:02:00,
2013-11-25 16:17:00,30.0,11.0,30.37,ENE,68,0.0,3.0,46,0.00,,,0.00,weatherlink.com 1.10,2013-11-25 21:17:00,
2013-11-25 16:32:00,29.0,12.0,30.37,SSW,195,0.0,1.0,50,0.00,,,0.00,weatherlink.com 1.10,2013-11-25 21:32:00,
2013-11-25 16:47:00,27.0,13.0,30.37,SSW,194,0.0,0.0,57,0.00,,,0.00,weatherlink.com 1.10,2013-11-25 21:47:00,
2013-11-25 17:02:00,24.8,13.0,30.38,SSW,194,0.0,0.0,60,0.00,,,0.00,weatherlink.com 1.10,2013-11-25 22:02:00,
2013-11-25 17:17:00,23.6,13.0,30.37,SSW,195,0.0,0.0,63,0.00,,,0.00,weatherlink.com 1.10,2013-11-25 22:17:00,
2013-11-25 17:32:00,22.7,13.0,30.36,SSW,194,0.0,0.0,65,0.00,,,0.00,weatherlink.com 1.10,2013-11-25 22:32:00,
2013-11-25 17:47:00,22.2,13.0,30.37,SSW,195,0.0,0.0,68,0.00,,,0.00,weatherlink.com 1.10,2013-11-25 22:47:00,
2013-11-25 18:02:00,23.2,14.0,30.36,SSW,194,0.0,0.0,68,0.00,,,0.00,weatherlink.com 1.10,2013-11-25 23:02:00,
2013-11-25 18:17:00,24.5,15.0,30.36,SSW,194,0.0,0.0,68,0.00,,,0.00,weatherlink.com 1.10,2013-11-25 23:17:00,
2013-11-25 18:32:00,24.8,16.0,30.35,SSW,194,0.0,0.0,68,0.00,,,0.00,weatherlink.com 1.10,2013-11-25 23:32:00,
2013-11-25 18:47:00,24.9,16.0,30.35,SSW,194,0.0,0.0,69,0.00,,,0.00,weatherlink.com 1.10,2013-11-25 23:47:00,
2013-11-25 19:02:00,25.4,16.0,30.36,SSE,164,0.0,0.0,68,0.00,,,0.00,weatherlink.com 1.10,2013-11-26 00:02:00,
2013-11-25 19:17:00,26.4,17.0,30.36,SE,132,0.0,0.0,68,0.00,,,0.00,weatherlink.com 1.10,2013-11-26 00:17:00,
2013-11-25 19:32:00,26.5,16.0,30.36,SE,133,0.0,0.0,66,0.00,,,0.00,weatherlink.com 1.10,2013-11-26 00:32:00,
2013-11-25 19:47:00,26.7,18.0,30.35,SE,132,0.0,0.0,69,0.00,,,0.00,weatherlink.com 1.10,2013-11-26 00:47:00,
2013-11-25 20:02:00,26.6,18.0,30.34,SE,132,0.0,0.0,70,0.00,,,0.00,weatherlink.com 1.10,2013-11-26 01:02:00,
2013-11-25 20:17:00,26.1,18.0,30.34,SE,132,0.0,0.0,70,0.00,,,0.00,weatherlink.com 1.10,2013-11-26 01:17:00,
2013-11-25 20:32:00,25.9,18.0,30.34,ESE,120,0.0,0.0,71,0.00,,,0.00,weatherlink.com 1.10,2013-11-26 01:32:00,
2013-11-25 20:47:00,26.4,19.0,30.34,ESE,120,0.0,0.0,73,0.00,,,0.00,weatherlink.com 1.10,2013-11-26 01:47:00,
2013-11-25 21:02:00,26.5,20.0,30.33,ESE,120,0.0,1.0,75,0.00,,,0.00,weatherlink.com 1.10,2013-11-26 02:02:00,
2013-11-25 21:17:00,26.5,19.0,30.33,ESE,120,0.0,0.0,74,0.00,,,0.00,weatherlink.com 1.10,2013-11-26 02:17:00,
2013-11-25 21:32:00,26.8,20.0,30.32,ESE,113,0.0,1.0,74,0.00,,,0.00,weatherlink.com 1.10,2013-11-26 02:32:00,
2013-11-25 21:47:00,26.9,19.0,30.32,ESE,113,0.0,0.0,73,0.00,,,0.00,weatherlink.com 1.10,2013-11-26 02:47:00,
2013-11-25 22:02:00,27.1,19.0,30.32,ESE,113,0.0,0.0,72,0.00,,,0.00,weatherlink.com 1.10,2013-11-26 03:02:00,
2013-11-25 22:17:00,26.6,20.0,30.32,SW,225,0.0,1.0,75,0.00,,,0.00,weatherlink.com 1.10,2013-11-26 03:17:00,
2013-11-25 22:32:00,28.4,18.0,30.32,SE,131,0.0,6.0,65,0.00,,,0.00,weatherlink.com 1.10,2013-11-26 03:32:00,
2013-11-25 22:47:00,29.2,18.0,30.32,ESE,111,2.0,3.0,63,0.00,,,0.00,weatherlink.com 1.10,2013-11-26 03:47:00,
2013-11-25 23:02:00,29.7,16.0,30.32,ESE,113,1.0,2.0,58,0.00,,,0.00,weatherlink.com 1.10,2013-11-26 04:02:00,
2013-11-25 23:17:00,30.1,16.0,30.32,ESE,116,1.0,1.0,55,0.00,,,0.00,weatherlink.com 1.10,2013-11-26 04:17:00,
2013-11-25 23:32:00,30.5,15.0,30.32,SE,136,2.0,6.0,53,0.00,,,0.00,weatherlink.com 1.10,2013-11-26 04:32:00,
2013-11-25 23:47:00,30.5,15.0,30.32,ESE,117,2.0,2.0,53,0.00,,,0.00,weatherlink.com 1.10,2013-11-26 04:47:00,